Airfield :
LOGIN :

Register | Disclaimer

   EN    FR    IT 

 










Legend :    VFR   Marginal VFR   IFR   Intensive IFR   Very Intensive IFR
Visi :
Ceiling :
>= 8 km
>= 3000ft
5 to 8 km
1000 to 3000 ft
1500m to 5 km
500 to 1000 ft
800 to 1500m
200 to 500 ft
< 800m
< 200 ft
Symbols :   Thunderstorms  Fog  Heavy snow  Heavy precipitations  Wind > 20 kt
SIGMETs :     Misc.  Thunderstorms  Icing  Turbulence  Mountain Waves  Volcanic Ashes







- Airport Elevation : 1363 ft


ETIC - Grafenwohr Army Air Field

CURRENT METAR :
  • 191756Z AUTO 24003KT 9999 CLR 29/09 A2982 RMK AO2 SLP080 T02870094 10300 20278 55002 $

EXPIRED METARs :
  • 191656Z AUTO 25004KT 9999 CLR 29/11 A2981 RMK AO2 SLP077 T02940105 $
  • 191556Z AUTO 19004KT 9999 FEW150 30/11 A2981 RMK AO2 SLP079 T02950106 $

TAF TAF ETIC
Valid from the 19 at 14:00 until the 20 at 20:00 UTC


191401Z 1914/2020 18009KT 9999 SCT060 QNH2982INS
BECMG 2004/2005 27006KT 9999 SCT040 BKN050 QNH2985INS
BECMG 2008/2009 27009KT 8000 -SHRA BKN040 QNH2988INS
TEMPO 2009/2016 VRB12G20KT 6000 -TSRA BKN040CB
BECMG 2015/2016 29012KT 9999 NSW SCT050 QNH2985INS TX31/1914Z TN15/2003Z
No reported NOTAMs for that airfield.



MET'MAP, your aeronautical weather chart ! - Copyright ORBIFLY December 2007 - Disclaimer

ORBIFLY MET'MAP TEAM :

Programming & Development : Alexandra Zaïnal
Concept & Development : Baudouin d'Aumeries
Co-Development & Prog : Marc-Olivier Méhu
Technical & hardware support : Manuel Goepfert

Contact : metmap@orbifly.com




SOURCES & CREDITS :

   NOAA